sensor_id;sensor_type;location;lat;lon;timestamp;pressure;altitude;pressure_sealevel;temperature;humidity
43503;BME280;29098;48.184;16.298;2022-12-18T00:01:25;100879.47;;;-0.80;89.34
43503;BME280;29098;48.184;16.298;2022-12-18T00:03:52;100875.03;;;-0.78;89.27
43503;BME280;29098;48.184;16.298;2022-12-18T00:06:18;100866.41;;;-0.79;89.50
43503;BME280;29098;48.184;16.298;2022-12-18T00:08:44;100872.88;;;-0.88;89.75
43503;BME280;29098;48.184;16.298;2022-12-18T00:11:11;100877.34;;;-0.91;89.45
43503;BME280;29098;48.184;16.298;2022-12-18T00:13:37;100889.22;;;-0.87;90.31
43503;BME280;29098;48.184;16.298;2022-12-18T00:16:03;100889.94;;;-0.84;89.53
43503;BME280;29098;48.184;16.298;2022-12-18T00:18:28;100888.09;;;-0.81;89.25
43503;BME280;29098;48.184;16.298;2022-12-18T00:20:53;100897.06;;;-0.89;88.55
43503;BME280;29098;48.184;16.298;2022-12-18T00:23:19;100894.84;;;-0.77;87.77
43503;BME280;29098;48.184;16.298;2022-12-18T00:25:44;100887.56;;;-0.88;89.00
43503;BME280;29098;48.184;16.298;2022-12-18T00:28:09;100883.28;;;-0.89;90.23
43503;BME280;29098;48.184;16.298;2022-12-18T00:30:35;100890.78;;;-1.02;90.05
43503;BME280;29098;48.184;16.298;2022-12-18T00:33:00;100889.47;;;-1.13;90.44
43503;BME280;29098;48.184;16.298;2022-12-18T00:35:25;100893.97;;;-0.97;90.66
43503;BME280;29098;48.184;16.298;2022-12-18T00:37:51;100899.16;;;-0.97;90.52
43503;BME280;29098;48.184;16.298;2022-12-18T00:40:16;100898.66;;;-1.05;91.66
43503;BME280;29098;48.184;16.298;2022-12-18T00:42:41;100898.53;;;-1.02;92.18
43503;BME280;29098;48.184;16.298;2022-12-18T00:45:26;100897.63;;;-1.01;92.08
43503;BME280;29098;48.184;16.298;2022-12-18T00:47:52;100893.41;;;-1.04;92.05
43503;BME280;29098;48.184;16.298;2022-12-18T00:50:18;100896.75;;;-1.21;92.46
43503;BME280;29098;48.184;16.298;2022-12-18T00:52:43;100904.19;;;-1.34;93.25
43503;BME280;29098;48.184;16.298;2022-12-18T00:55:09;100903.19;;;-1.30;93.61
43503;BME280;29098;48.184;16.298;2022-12-18T00:57:34;100909.56;;;-1.39;93.48
43503;BME280;29098;48.184;16.298;2022-12-18T01:00:00;100902.31;;;-1.30;93.18
43503;BME280;29098;48.184;16.298;2022-12-18T01:02:25;100905.06;;;-1.33;93.55
43503;BME280;29098;48.184;16.298;2022-12-18T01:04:50;100909.44;;;-1.35;93.38
43503;BME280;29098;48.184;16.298;2022-12-18T01:07:16;100920.94;;;-1.43;93.57
43503;BME280;29098;48.184;16.298;2022-12-18T01:09:41;100929.81;;;-1.48;94.40
43503;BME280;29098;48.184;16.298;2022-12-18T01:12:06;100929.75;;;-1.47;94.80
43503;BME280;29098;48.184;16.298;2022-12-18T01:14:32;100936.03;;;-1.53;95.48
43503;BME280;29098;48.184;16.298;2022-12-18T01:16:57;100936.09;;;-1.54;94.89
43503;BME280;29098;48.184;16.298;2022-12-18T01:19:22;100930.53;;;-1.66;95.19
43503;BME280;29098;48.184;16.298;2022-12-18T01:21:49;100937.19;;;-1.60;95.58
43503;BME280;29098;48.184;16.298;2022-12-18T01:24:14;100938.00;;;-1.59;94.55
43503;BME280;29098;48.184;16.298;2022-12-18T01:26:40;100941.13;;;-1.72;94.36
43503;BME280;29098;48.184;16.298;2022-12-18T01:29:05;100934.09;;;-1.68;93.18
43503;BME280;29098;48.184;16.298;2022-12-18T01:31:31;100936.84;;;-1.73;91.62
43503;BME280;29098;48.184;16.298;2022-12-18T01:33:57;100943.94;;;-1.78;91.93
43503;BME280;29098;48.184;16.298;2022-12-18T01:36:28;100936.44;;;-1.84;92.99
43503;BME280;29098;48.184;16.298;2022-12-18T01:38:53;100936.44;;;-1.84;92.53
43503;BME280;29098;48.184;16.298;2022-12-18T01:41:20;100935.53;;;-1.83;91.74
43503;BME280;29098;48.184;16.298;2022-12-18T01:43:53;100944.53;;;-1.92;91.83
43503;BME280;29098;48.184;16.298;2022-12-18T01:46:20;100949.03;;;-1.97;92.04
43503;BME280;29098;48.184;16.298;2022-12-18T01:48:47;100950.66;;;-1.95;92.04
43503;BME280;29098;48.184;16.298;2022-12-18T01:51:13;100947.34;;;-1.98;92.83
43503;BME280;29098;48.184;16.298;2022-12-18T01:53:39;100953.66;;;-2.05;92.51
43503;BME280;29098;48.184;16.298;2022-12-18T01:56:05;100956.09;;;-2.02;92.25
43503;BME280;29098;48.184;16.298;2022-12-18T01:58:39;100952.16;;;-2.11;92.49
43503;BME280;29098;48.184;16.298;2022-12-18T02:01:06;100957.25;;;-2.10;93.51
43503;BME280;29098;48.184;16.298;2022-12-18T02:03:31;100957.31;;;-2.11;93.13
43503;BME280;29098;48.184;16.298;2022-12-18T02:08:34;100961.09;;;-2.20;93.54
43503;BME280;29098;48.184;16.298;2022-12-18T02:14:04;100965.66;;;-2.27;94.44
43503;BME280;29098;48.184;16.298;2022-12-18T02:22:00;100981.44;;;-2.35;94.79
43503;BME280;29098;48.184;16.298;2022-12-18T02:24:31;100971.16;;;-2.36;95.55
43503;BME280;29098;48.184;16.298;2022-12-18T02:27:01;100980.44;;;-2.30;95.13
43503;BME280;29098;48.184;16.298;2022-12-18T02:29:36;100983.13;;;-2.34;94.90
43503;BME280;29098;48.184;16.298;2022-12-18T02:32:04;100987.47;;;-2.34;94.63
43503;BME280;29098;48.184;16.298;2022-12-18T02:34:31;100975.53;;;-2.38;95.46
43503;BME280;29098;48.184;16.298;2022-12-18T02:36:58;100982.56;;;-2.42;94.67
43503;BME280;29098;48.184;16.298;2022-12-18T02:39:25;100985.44;;;-2.50;95.02
43503;BME280;29098;48.184;16.298;2022-12-18T02:41:52;100994.03;;;-2.49;95.31
43503;BME280;29098;48.184;16.298;2022-12-18T02:44:17;100987.22;;;-2.52;95.82
43503;BME280;29098;48.184;16.298;2022-12-18T02:46:43;100986.28;;;-2.49;95.21
43503;BME280;29098;48.184;16.298;2022-12-18T02:51:55;100988.03;;;-2.50;95.35
43503;BME280;29098;48.184;16.298;2022-12-18T02:56:55;101004.53;;;-2.54;95.95
43503;BME280;29098;48.184;16.298;2022-12-18T02:59:41;101007.50;;;-2.65;95.67
43503;BME280;29098;48.184;16.298;2022-12-18T03:07:28;101010.19;;;-2.68;96.66
43503;BME280;29098;48.184;16.298;2022-12-18T03:09:58;101008.38;;;-2.66;97.09
43503;BME280;29098;48.184;16.298;2022-12-18T03:12:35;101013.44;;;-2.63;96.72
43503;BME280;29098;48.184;16.298;2022-12-18T03:17:32;101010.72;;;-2.58;96.97
43503;BME280;29098;48.184;16.298;2022-12-18T03:19:59;101006.66;;;-2.65;97.80
43503;BME280;29098;48.184;16.298;2022-12-18T03:22:26;101003.09;;;-2.63;98.75
43503;BME280;29098;48.184;16.298;2022-12-18T03:24:54;101004.19;;;-2.68;99.22
43503;BME280;29098;48.184;16.298;2022-12-18T03:27:21;101006.06;;;-2.73;99.60
43503;BME280;29098;48.184;16.298;2022-12-18T03:29:50;101004.38;;;-2.75;99.53
43503;BME280;29098;48.184;16.298;2022-12-18T03:32:20;101011.34;;;-2.77;100.00
43503;BME280;29098;48.184;16.298;2022-12-18T03:34:49;101008.78;;;-2.77;100.00
43503;BME280;29098;48.184;16.298;2022-12-18T03:37:15;101007.66;;;-2.69;99.67
43503;BME280;29098;48.184;16.298;2022-12-18T03:39:41;101011.22;;;-2.73;99.81
43503;BME280;29098;48.184;16.298;2022-12-18T03:42:22;101017.03;;;-2.67;99.62
43503;BME280;29098;48.184;16.298;2022-12-18T03:44:53;101017.41;;;-2.78;99.59
43503;BME280;29098;48.184;16.298;2022-12-18T03:52:23;101008.56;;;-2.96;100.00
43503;BME280;29098;48.184;16.298;2022-12-18T03:54:51;101015.78;;;-3.06;100.00
43503;BME280;29098;48.184;16.298;2022-12-18T03:57:23;101021.06;;;-3.09;100.00
43503;BME280;29098;48.184;16.298;2022-12-18T03:59:50;101024.69;;;-3.14;100.00
43503;BME280;29098;48.184;16.298;2022-12-18T04:02:17;101034.19;;;-3.17;100.00
43503;BME280;29098;48.184;16.298;2022-12-18T04:04:43;101032.53;;;-3.18;100.00
43503;BME280;29098;48.184;16.298;2022-12-18T04:07:10;101034.31;;;-3.20;100.00
43503;BME280;29098;48.184;16.298;2022-12-18T04:09:35;101041.91;;;-3.15;100.00
43503;BME280;29098;48.184;16.298;2022-12-18T04:12:01;101048.53;;;-3.08;100.00
43503;BME280;29098;48.184;16.298;2022-12-18T04:14:27;101039.44;;;-3.18;100.00
43503;BME280;29098;48.184;16.298;2022-12-18T04:16:52;101047.56;;;-3.31;100.00
43503;BME280;29098;48.184;16.298;2022-12-18T04:19:17;101048.06;;;-3.19;100.00
43503;BME280;29098;48.184;16.298;2022-12-18T04:21:43;101051.75;;;-3.26;100.00
43503;BME280;29098;48.184;16.298;2022-12-18T04:24:08;101051.16;;;-3.35;100.00
43503;BME280;29098;48.184;16.298;2022-12-18T04:26:33;101056.50;;;-3.41;100.00
43503;BME280;29098;48.184;16.298;2022-12-18T04:28:59;101061.53;;;-3.38;100.00
43503;BME280;29098;48.184;16.298;2022-12-18T04:31:24;101060.56;;;-3.34;100.00
43503;BME280;29098;48.184;16.298;2022-12-18T04:33:49;101063.41;;;-3.43;100.00
43503;BME280;29098;48.184;16.298;2022-12-18T04:36:15;101068.19;;;-3.58;100.00
43503;BME280;29098;48.184;16.298;2022-12-18T04:38:40;101074.50;;;-3.68;100.00
43503;BME280;29098;48.184;16.298;2022-12-18T04:41:05;101071.78;;;-3.63;100.00
43503;BME280;29098;48.184;16.298;2022-12-18T04:43:31;101069.16;;;-3.90;100.00
43503;BME280;29098;48.184;16.298;2022-12-18T04:46:03;101076.75;;;-3.86;100.00
43503;BME280;29098;48.184;16.298;2022-12-18T04:48:29;101075.03;;;-3.85;100.00
43503;BME280;29098;48.184;16.298;2022-12-18T04:50:54;101082.81;;;-3.87;100.00
43503;BME280;29098;48.184;16.298;2022-12-18T04:53:19;101082.13;;;-3.93;100.00
43503;BME280;29098;48.184;16.298;2022-12-18T04:55:45;101088.22;;;-3.96;100.00
43503;BME280;29098;48.184;16.298;2022-12-18T04:58:10;101088.03;;;-3.90;100.00
43503;BME280;29098;48.184;16.298;2022-12-18T05:00:35;101090.44;;;-3.83;100.00
43503;BME280;29098;48.184;16.298;2022-12-18T05:03:01;101100.72;;;-3.83;100.00
43503;BME280;29098;48.184;16.298;2022-12-18T05:05:27;101093.78;;;-3.81;100.00
43503;BME280;29098;48.184;16.298;2022-12-18T05:07:52;101096.03;;;-3.99;100.00
43503;BME280;29098;48.184;16.298;2022-12-18T05:10:18;101102.06;;;-4.00;100.00
43503;BME280;29098;48.184;16.298;2022-12-18T05:12:43;101104.63;;;-3.99;100.00
43503;BME280;29098;48.184;16.298;2022-12-18T05:15:26;101104.75;;;-4.03;100.00
43503;BME280;29098;48.184;16.298;2022-12-18T05:17:52;101111.09;;;-4.15;100.00
43503;BME280;29098;48.184;16.298;2022-12-18T05:20:17;101110.34;;;-4.19;100.00
43503;BME280;29098;48.184;16.298;2022-12-18T05:22:43;101117.00;;;-4.11;100.00
43503;BME280;29098;48.184;16.298;2022-12-18T05:25:08;101120.44;;;-4.13;100.00
43503;BME280;29098;48.184;16.298;2022-12-18T05:27:34;101103.56;;;-4.23;100.00
43503;BME280;29098;48.184;16.298;2022-12-18T05:29:59;101105.94;;;-4.15;100.00
43503;BME280;29098;48.184;16.298;2022-12-18T05:32:24;101113.91;;;-4.24;100.00
43503;BME280;29098;48.184;16.298;2022-12-18T05:34:49;101116.78;;;-4.04;100.00
43503;BME280;29098;48.184;16.298;2022-12-18T05:37:15;101118.84;;;-4.17;100.00
43503;BME280;29098;48.184;16.298;2022-12-18T05:39:40;101115.97;;;-4.06;100.00
43503;BME280;29098;48.184;16.298;2022-12-18T05:42:06;101122.22;;;-4.15;100.00
43503;BME280;29098;48.184;16.298;2022-12-18T05:44:31;101116.72;;;-4.34;100.00
43503;BME280;29098;48.184;16.298;2022-12-18T05:46:56;101117.66;;;-4.36;100.00
43503;BME280;29098;48.184;16.298;2022-12-18T05:49:21;101123.78;;;-4.41;100.00
43503;BME280;29098;48.184;16.298;2022-12-18T05:51:47;101122.69;;;-4.32;100.00
43503;BME280;29098;48.184;16.298;2022-12-18T05:54:12;101123.56;;;-4.33;100.00
43503;BME280;29098;48.184;16.298;2022-12-18T05:56:38;101122.25;;;-4.48;100.00
43503;BME280;29098;48.184;16.298;2022-12-18T05:59:03;101114.59;;;-4.51;100.00
43503;BME280;29098;48.184;16.298;2022-12-18T06:01:28;101119.59;;;-4.45;100.00
43503;BME280;29098;48.184;16.298;2022-12-18T06:03:54;101127.84;;;-4.65;100.00
43503;BME280;29098;48.184;16.298;2022-12-18T06:06:21;101131.03;;;-4.55;100.00
43503;BME280;29098;48.184;16.298;2022-12-18T06:08:47;101134.00;;;-4.71;100.00
43503;BME280;29098;48.184;16.298;2022-12-18T06:11:13;101139.03;;;-4.66;100.00
43503;BME280;29098;48.184;16.298;2022-12-18T06:13:40;101140.06;;;-4.73;100.00
43503;BME280;29098;48.184;16.298;2022-12-18T06:16:06;101155.34;;;-4.67;100.00
43503;BME280;29098;48.184;16.298;2022-12-18T06:18:32;101154.34;;;-4.61;100.00
43503;BME280;29098;48.184;16.298;2022-12-18T06:20:58;101161.13;;;-4.57;100.00
43503;BME280;29098;48.184;16.298;2022-12-18T06:23:23;101161.28;;;-4.63;100.00
43503;BME280;29098;48.184;16.298;2022-12-18T06:25:49;101155.22;;;-4.62;100.00
43503;BME280;29098;48.184;16.298;2022-12-18T06:28:14;101161.31;;;-4.65;100.00
43503;BME280;29098;48.184;16.298;2022-12-18T06:30:40;101158.19;;;-4.78;100.00
43503;BME280;29098;48.184;16.298;2022-12-18T06:33:08;101162.31;;;-4.71;100.00
43503;BME280;29098;48.184;16.298;2022-12-18T06:35:33;101168.41;;;-4.75;100.00
43503;BME280;29098;48.184;16.298;2022-12-18T06:37:58;101181.88;;;-4.63;100.00
43503;BME280;29098;48.184;16.298;2022-12-18T06:40:25;101169.91;;;-4.66;100.00
43503;BME280;29098;48.184;16.298;2022-12-18T06:42:51;101170.69;;;-4.62;100.00
43503;BME280;29098;48.184;16.298;2022-12-18T06:45:16;101180.94;;;-4.61;100.00
43503;BME280;29098;48.184;16.298;2022-12-18T06:47:42;101180.09;;;-4.61;100.00
43503;BME280;29098;48.184;16.298;2022-12-18T06:50:07;101181.44;;;-4.81;100.00
43503;BME280;29098;48.184;16.298;2022-12-18T06:52:33;101178.94;;;-4.86;100.00
43503;BME280;29098;48.184;16.298;2022-12-18T06:54:58;101192.81;;;-4.91;100.00
43503;BME280;29098;48.184;16.298;2022-12-18T06:57:24;101193.59;;;-4.88;100.00
43503;BME280;29098;48.184;16.298;2022-12-18T06:59:49;101198.53;;;-4.44;100.00
43503;BME280;29098;48.184;16.298;2022-12-18T07:02:14;101200.25;;;-4.44;100.00
43503;BME280;29098;48.184;16.298;2022-12-18T07:04:39;101202.50;;;-4.32;100.00
43503;BME280;29098;48.184;16.298;2022-12-18T07:07:05;101204.03;;;-4.24;98.80
43503;BME280;29098;48.184;16.298;2022-12-18T07:09:30;101211.63;;;-4.20;98.39
43503;BME280;29098;48.184;16.298;2022-12-18T07:11:55;101210.59;;;-4.46;98.33
43503;BME280;29098;48.184;16.298;2022-12-18T07:14:21;101214.97;;;-4.49;97.58
43503;BME280;29098;48.184;16.298;2022-12-18T07:16:46;101209.28;;;-4.62;98.16
43503;BME280;29098;48.184;16.298;2022-12-18T07:19:11;101221.16;;;-4.57;98.94
43503;BME280;29098;48.184;16.298;2022-12-18T07:21:37;101230.38;;;-4.84;99.18
43503;BME280;29098;48.184;16.298;2022-12-18T07:24:02;101223.63;;;-4.88;100.00
43503;BME280;29098;48.184;16.298;2022-12-18T07:26:27;101238.91;;;-4.82;99.50
43503;BME280;29098;48.184;16.298;2022-12-18T07:28:56;101237.22;;;-4.83;99.81
43503;BME280;29098;48.184;16.298;2022-12-18T07:31:22;101245.81;;;-4.84;99.68
43503;BME280;29098;48.184;16.298;2022-12-18T07:33:48;101245.06;;;-4.89;99.98
43503;BME280;29098;48.184;16.298;2022-12-18T07:36:14;101246.72;;;-4.87;100.00
43503;BME280;29098;48.184;16.298;2022-12-18T07:38:40;101249.00;;;-4.73;99.54
43503;BME280;29098;48.184;16.298;2022-12-18T07:41:10;101251.25;;;-4.60;99.58
43503;BME280;29098;48.184;16.298;2022-12-18T07:43:36;101256.34;;;-4.57;98.52
43503;BME280;29098;48.184;16.298;2022-12-18T07:46:01;101262.44;;;-4.61;98.95
43503;BME280;29098;48.184;16.298;2022-12-18T07:48:27;101260.69;;;-4.59;98.93
43503;BME280;29098;48.184;16.298;2022-12-18T07:50:53;101265.78;;;-4.56;98.78
43503;BME280;29098;48.184;16.298;2022-12-18T07:53:18;101274.06;;;-4.45;98.72
43503;BME280;29098;48.184;16.298;2022-12-18T07:55:43;101276.38;;;-4.34;97.64
43503;BME280;29098;48.184;16.298;2022-12-18T07:58:09;101276.97;;;-4.59;98.18
43503;BME280;29098;48.184;16.298;2022-12-18T08:00:34;101287.03;;;-4.48;98.58
43503;BME280;29098;48.184;16.298;2022-12-18T08:03:00;101291.84;;;-4.35;98.29
43503;BME280;29098;48.184;16.298;2022-12-18T08:05:25;101298.72;;;-4.34;98.00
43503;BME280;29098;48.184;16.298;2022-12-18T08:07:51;101297.84;;;-4.33;98.30
43503;BME280;29098;48.184;16.298;2022-12-18T08:10:17;101292.59;;;-4.30;97.71
43503;BME280;29098;48.184;16.298;2022-12-18T08:12:42;101286.78;;;-4.38;98.34
43503;BME280;29098;48.184;16.298;2022-12-18T08:15:07;101296.94;;;-4.31;98.76
43503;BME280;29098;48.184;16.298;2022-12-18T08:17:33;101290.81;;;-4.28;98.10
43503;BME280;29098;48.184;16.298;2022-12-18T08:19:58;101283.84;;;-4.23;98.20
43503;BME280;29098;48.184;16.298;2022-12-18T08:22:24;101276.72;;;-4.11;97.78
43503;BME280;29098;48.184;16.298;2022-12-18T08:24:49;101284.88;;;-3.95;96.98
43503;BME280;29098;48.184;16.298;2022-12-18T08:27:14;101283.16;;;-3.95;96.87
43503;BME280;29098;48.184;16.298;2022-12-18T08:29:40;101290.03;;;-3.95;97.37
43503;BME280;29098;48.184;16.298;2022-12-18T08:32:05;101283.75;;;-3.85;97.25
43503;BME280;29098;48.184;16.298;2022-12-18T08:34:30;101285.38;;;-3.82;96.54
43503;BME280;29098;48.184;16.298;2022-12-18T08:36:56;101292.06;;;-3.75;96.59
43503;BME280;29098;48.184;16.298;2022-12-18T08:39:21;101292.00;;;-3.72;95.82
43503;BME280;29098;48.184;16.298;2022-12-18T08:41:46;101296.44;;;-3.77;96.32
43503;BME280;29098;48.184;16.298;2022-12-18T08:44:32;101294.59;;;-3.72;96.10
43503;BME280;29098;48.184;16.298;2022-12-18T08:47:03;101299.38;;;-3.58;96.70
43503;BME280;29098;48.184;16.298;2022-12-18T08:49:28;101300.78;;;-3.48;95.82
43503;BME280;29098;48.184;16.298;2022-12-18T08:51:54;101301.53;;;-3.44;95.48
43503;BME280;29098;48.184;16.298;2022-12-18T08:54:19;101307.53;;;-3.42;95.59
43503;BME280;29098;48.184;16.298;2022-12-18T08:56:45;101304.75;;;-3.36;95.56
43503;BME280;29098;48.184;16.298;2022-12-18T08:59:10;101313.09;;;-3.26;95.80
43503;BME280;29098;48.184;16.298;2022-12-18T09:01:36;101304.59;;;-2.99;94.73
43503;BME280;29098;48.184;16.298;2022-12-18T09:04:01;101302.34;;;-2.82;94.75
43503;BME280;29098;48.184;16.298;2022-12-18T09:06:27;101305.75;;;-2.80;94.81
43503;BME280;29098;48.184;16.298;2022-12-18T09:08:52;101310.97;;;-2.83;94.80
43503;BME280;29098;48.184;16.298;2022-12-18T09:11:22;101321.69;;;-2.95;95.06
43503;BME280;29098;48.184;16.298;2022-12-18T09:13:48;101312.88;;;-2.88;95.49
43503;BME280;29098;48.184;16.298;2022-12-18T09:16:13;101312.94;;;-2.91;96.24
43503;BME280;29098;48.184;16.298;2022-12-18T09:18:38;101307.44;;;-2.79;96.04
43503;BME280;29098;48.184;16.298;2022-12-18T09:21:07;101313.38;;;-2.77;96.05
43503;BME280;29098;48.184;16.298;2022-12-18T09:23:33;101316.44;;;-2.64;96.52
43503;BME280;29098;48.184;16.298;2022-12-18T09:25:59;101314.19;;;-2.46;97.20
43503;BME280;29098;48.184;16.298;2022-12-18T09:28:24;101312.19;;;-2.38;97.24
43503;BME280;29098;48.184;16.298;2022-12-18T09:30:50;101315.13;;;-2.22;96.00
43503;BME280;29098;48.184;16.298;2022-12-18T09:33:16;101306.41;;;-2.19;96.47
43503;BME280;29098;48.184;16.298;2022-12-18T09:35:42;101305.16;;;-2.07;94.85
43503;BME280;29098;48.184;16.298;2022-12-18T09:38:08;101295.16;;;-2.16;95.78
43503;BME280;29098;48.184;16.298;2022-12-18T09:40:36;101295.88;;;-2.13;95.92
43503;BME280;29098;48.184;16.298;2022-12-18T09:43:05;101313.13;;;-2.13;96.10
43503;BME280;29098;48.184;16.298;2022-12-18T09:45:35;101317.00;;;-2.00;95.24
43503;BME280;29098;48.184;16.298;2022-12-18T09:48:03;101312.09;;;-2.08;95.31
43503;BME280;29098;48.184;16.298;2022-12-18T09:50:35;101306.78;;;-2.03;94.97
43503;BME280;29098;48.184;16.298;2022-12-18T09:53:07;101307.75;;;-2.07;95.20
43503;BME280;29098;48.184;16.298;2022-12-18T09:55:37;101308.78;;;-2.11;95.57
43503;BME280;29098;48.184;16.298;2022-12-18T09:58:12;101301.75;;;-2.08;95.19
43503;BME280;29098;48.184;16.298;2022-12-18T10:00:42;101286.72;;;-1.96;94.71
43503;BME280;29098;48.184;16.298;2022-12-18T10:03:11;101289.69;;;-1.82;94.57
43503;BME280;29098;48.184;16.298;2022-12-18T10:05:39;101291.53;;;-1.85;94.35
43503;BME280;29098;48.184;16.298;2022-12-18T10:08:14;101292.44;;;-1.86;94.23
43503;BME280;29098;48.184;16.298;2022-12-18T10:15:54;101290.44;;;-2.05;94.18
43503;BME280;29098;48.184;16.298;2022-12-18T10:20:49;101283.88;;;-1.88;94.37
43503;BME280;29098;48.184;16.298;2022-12-18T10:26:06;101287.47;;;-1.93;94.47
43503;BME280;29098;48.184;16.298;2022-12-18T10:28:34;101284.63;;;-1.85;94.29
43503;BME280;29098;48.184;16.298;2022-12-18T10:31:00;101283.66;;;-1.82;93.89
43503;BME280;29098;48.184;16.298;2022-12-18T10:33:28;101276.22;;;-1.66;92.04
43503;BME280;29098;48.184;16.298;2022-12-18T10:35:54;101286.81;;;-1.74;91.19
43503;BME280;29098;48.184;16.298;2022-12-18T10:38:27;101291.72;;;-1.66;91.27
43503;BME280;29098;48.184;16.298;2022-12-18T10:43:36;101287.13;;;-1.83;91.74
43503;BME280;29098;48.184;16.298;2022-12-18T10:48:40;101277.53;;;-1.80;90.52
43503;BME280;29098;48.184;16.298;2022-12-18T10:51:19;101279.22;;;-1.79;90.54
43503;BME280;29098;48.184;16.298;2022-12-18T10:53:50;101273.41;;;-1.85;91.19
43503;BME280;29098;48.184;16.298;2022-12-18T10:56:18;101274.91;;;-1.78;90.70
43503;BME280;29098;48.184;16.298;2022-12-18T10:58:46;101265.34;;;-1.76;89.81
43503;BME280;29098;48.184;16.298;2022-12-18T11:01:19;101273.66;;;-1.68;90.92
43503;BME280;29098;48.184;16.298;2022-12-18T11:03:46;101269.44;;;-1.70;90.06
43503;BME280;29098;48.184;16.298;2022-12-18T11:06:23;101265.47;;;-1.79;91.03
43503;BME280;29098;48.184;16.298;2022-12-18T11:11:30;101259.19;;;-1.72;90.80
43503;BME280;29098;48.184;16.298;2022-12-18T11:14:06;101265.47;;;-1.79;90.11
43503;BME280;29098;48.184;16.298;2022-12-18T11:16:37;101262.97;;;-1.82;89.01
43503;BME280;29098;48.184;16.298;2022-12-18T11:19:10;101261.19;;;-1.80;90.24
43503;BME280;29098;48.184;16.298;2022-12-18T11:21:39;101261.97;;;-1.78;90.78
43503;BME280;29098;48.184;16.298;2022-12-18T11:24:05;101263.53;;;-1.74;91.23
43503;BME280;29098;48.184;16.298;2022-12-18T11:26:38;101268.56;;;-1.69;90.00
43503;BME280;29098;48.184;16.298;2022-12-18T11:29:08;101271.47;;;-1.55;89.46
43503;BME280;29098;48.184;16.298;2022-12-18T11:31:33;101269.44;;;-1.70;89.14
43503;BME280;29098;48.184;16.298;2022-12-18T11:36:25;101250.50;;;-1.71;89.91
43503;BME280;29098;48.184;16.298;2022-12-18T11:38:52;101255.13;;;-1.55;89.28
43503;BME280;29098;48.184;16.298;2022-12-18T11:41:54;101261.59;;;-1.67;89.56
43503;BME280;29098;48.184;16.298;2022-12-18T11:44:47;101248.94;;;-2.00;90.64
43503;BME280;29098;48.184;16.298;2022-12-18T11:50:00;101254.44;;;-1.84;89.83
43503;BME280;29098;48.184;16.298;2022-12-18T11:52:39;101246.44;;;-2.02;90.29
43503;BME280;29098;48.184;16.298;2022-12-18T11:55:10;101238.56;;;-1.99;91.43
43503;BME280;29098;48.184;16.298;2022-12-18T11:57:39;101234.75;;;-1.88;91.55
43503;BME280;29098;48.184;16.298;2022-12-18T12:13:02;101204.94;;;-1.99;89.50
43503;BME280;29098;48.184;16.298;2022-12-18T12:15:48;101236.72;;;-1.71;89.41
43503;BME280;29098;48.184;16.298;2022-12-18T12:20:52;101232.06;;;-1.61;89.38
43503;BME280;29098;48.184;16.298;2022-12-18T12:25:51;101231.22;;;-1.62;89.77
43503;BME280;29098;48.184;16.298;2022-12-18T12:36:38;101202.06;;;-1.66;90.49
43503;BME280;29098;48.184;16.298;2022-12-18T12:39:07;101220.81;;;-1.60;90.32
43503;BME280;29098;48.184;16.298;2022-12-18T12:41:35;101219.75;;;-1.55;90.70
43503;BME280;29098;48.184;16.298;2022-12-18T12:44:28;101213.84;;;-1.58;90.69
43503;BME280;29098;48.184;16.298;2022-12-18T12:46:56;101213.28;;;-1.43;89.14
43503;BME280;29098;48.184;16.298;2022-12-18T12:49:26;101207.72;;;-1.56;90.05
43503;BME280;29098;48.184;16.298;2022-12-18T12:52:11;101214.44;;;-1.50;89.84
43503;BME280;29098;48.184;16.298;2022-12-18T12:54:37;101211.34;;;-1.60;90.27
43503;BME280;29098;48.184;16.298;2022-12-18T13:04:49;101225.91;;;-1.57;90.82
43503;BME280;29098;48.184;16.298;2022-12-18T13:07:24;101232.06;;;-1.61;91.25
43503;BME280;29098;48.184;16.298;2022-12-18T13:10:11;101232.28;;;-1.68;92.39
43503;BME280;29098;48.184;16.298;2022-12-18T13:12:50;101240.53;;;-1.56;91.72
43503;BME280;29098;48.184;16.298;2022-12-18T13:15:27;101237.13;;;-1.58;91.18
43503;BME280;29098;48.184;16.298;2022-12-18T13:20:49;101253.22;;;-1.50;91.84
43503;BME280;29098;48.184;16.298;2022-12-18T13:25:44;101242.25;;;-1.57;91.62
43503;BME280;29098;48.184;16.298;2022-12-18T13:28:10;101236.25;;;-1.57;92.21
43503;BME280;29098;48.184;16.298;2022-12-18T13:38:21;101244.16;;;-1.62;92.71
43503;BME280;29098;48.184;16.298;2022-12-18T13:45:42;101247.06;;;-1.71;92.82
43503;BME280;29098;48.184;16.298;2022-12-18T13:48:18;101246.81;;;-1.63;93.31
43503;BME280;29098;48.184;16.298;2022-12-18T13:50:49;101252.19;;;-1.70;92.80
43503;BME280;29098;48.184;16.298;2022-12-18T13:53:22;101244.41;;;-1.68;93.42
43503;BME280;29098;48.184;16.298;2022-12-18T13:55:49;101249.22;;;-1.59;92.64
43503;BME280;29098;48.184;16.298;2022-12-18T13:58:14;101252.31;;;-1.73;93.08
43503;BME280;29098;48.184;16.298;2022-12-18T14:00:43;101254.09;;;-1.75;94.03
43503;BME280;29098;48.184;16.298;2022-12-18T14:03:22;101256.50;;;-1.70;93.87
43503;BME280;29098;48.184;16.298;2022-12-18T14:08:46;101260.91;;;-1.72;93.52
43503;BME280;29098;48.184;16.298;2022-12-18T14:11:22;101263.78;;;-1.32;94.73
43503;BME280;29098;48.184;16.298;2022-12-18T14:13:47;101257.66;;;-1.54;92.65
43503;BME280;29098;48.184;16.298;2022-12-18T14:16:14;101262.25;;;-1.62;93.13
43503;BME280;29098;48.184;16.298;2022-12-18T14:18:48;101265.00;;;-1.67;93.38
43503;BME280;29098;48.184;16.298;2022-12-18T14:21:17;101269.69;;;-1.76;93.42
43503;BME280;29098;48.184;16.298;2022-12-18T14:23:43;101274.56;;;-1.69;93.27
43503;BME280;29098;48.184;16.298;2022-12-18T14:28:46;101285.25;;;-1.78;94.35
43503;BME280;29098;48.184;16.298;2022-12-18T14:31:18;101287.66;;;-1.73;93.85